createdAt,value
2018-01-26T00:01:37.008Z,17.80
2018-01-26T00:04:05.252Z,19.83
2018-01-26T00:06:33.545Z,20.73
2018-01-26T00:09:02.567Z,26.00
2018-01-26T00:11:30.838Z,20.27
2018-01-26T00:13:59.085Z,17.23
2018-01-26T00:16:28.101Z,15.10
2018-01-26T00:18:56.388Z,18.17
2018-01-26T00:21:24.628Z,18.13
2018-01-26T00:23:55.457Z,16.70
2018-01-26T00:26:24.472Z,17.53
2018-01-26T00:28:52.740Z,20.20
2018-01-26T00:31:20.996Z,17.73
2018-01-26T00:33:50.008Z,18.30
2018-01-26T00:36:18.384Z,18.27
2018-01-26T00:38:46.674Z,18.10
2018-01-26T00:41:15.667Z,16.90
2018-01-26T00:43:43.920Z,20.70
2018-01-26T00:46:12.244Z,21.67
2018-01-26T00:48:40.479Z,21.93
2018-01-26T00:51:08.768Z,18.57
2018-01-26T00:53:37.016Z,20.60
2018-01-26T00:56:06.090Z,15.57
2018-01-26T00:58:34.324Z,19.70
2018-01-26T01:01:02.611Z,20.30
2018-01-26T01:03:30.884Z,18.97
2018-01-26T01:05:59.116Z,18.60
2018-01-26T01:08:28.140Z,17.93
2018-01-26T01:14:11.369Z,19.00
2018-01-26T01:16:40.571Z,14.80
2018-01-26T01:19:08.923Z,16.77
2018-01-26T01:21:38.018Z,19.23
2018-01-26T01:24:07.115Z,19.83
2018-01-26T01:26:36.193Z,20.97
2018-01-26T01:29:04.521Z,17.53
2018-01-26T01:31:32.819Z,20.13
2018-01-26T01:36:59.720Z,21.27
2018-01-26T01:39:28.840Z,20.17
2018-01-26T01:41:57.889Z,20.47
2018-01-26T01:44:26.181Z,19.77
2018-01-26T01:46:54.522Z,15.97
2018-01-26T01:49:22.827Z,18.23
2018-01-26T01:51:51.160Z,17.40
2018-01-26T01:54:19.461Z,18.60
2018-01-26T01:56:47.784Z,17.20
2018-01-26T01:59:16.841Z,16.90
2018-01-26T02:01:45.185Z,15.10
2018-01-26T02:04:13.489Z,20.07
2018-01-26T02:06:41.782Z,27.10
2018-01-26T02:09:10.881Z,22.00
2018-01-26T02:11:39.573Z,21.50
2018-01-26T02:14:08.653Z,18.30
2018-01-26T02:16:36.953Z,17.37
2018-01-26T02:19:06.037Z,17.33
2018-01-26T02:21:35.114Z,17.93
2018-01-26T02:24:03.447Z,15.63
2018-01-26T02:26:31.777Z,22.73
2018-01-26T02:29:00.156Z,16.07
2018-01-26T02:31:28.449Z,14.73
2018-01-26T02:33:57.503Z,20.03
2018-01-26T02:36:25.813Z,23.93
2018-01-26T02:38:54.866Z,18.10
2018-01-26T02:41:23.201Z,22.00
2018-01-26T02:43:51.532Z,22.53
2018-01-26T02:46:19.849Z,19.20
2018-01-26T02:48:48.914Z,17.10
2018-01-26T02:51:17.236Z,17.57
2018-01-26T02:53:45.992Z,15.83
2018-01-26T02:56:15.094Z,17.07
2018-01-26T02:58:43.411Z,14.40
2018-01-26T03:01:11.715Z,14.23
2018-01-26T03:03:41.145Z,15.03
2018-01-26T03:06:10.203Z,13.30
2018-01-26T03:08:38.524Z,15.10
2018-01-26T03:11:07.590Z,17.00
2018-01-26T03:13:35.913Z,15.87
2018-01-26T03:16:04.455Z,15.47
2018-01-26T03:18:32.769Z,14.10
2018-01-26T03:21:01.101Z,14.93
2018-01-26T03:23:29.425Z,18.07
2018-01-26T03:25:57.712Z,17.50
2018-01-26T03:28:26.045Z,14.77
2018-01-26T03:30:55.108Z,16.00
2018-01-26T03:33:23.429Z,12.77
2018-01-26T03:35:52.533Z,12.93
2018-01-26T03:38:20.833Z,16.17
2018-01-26T03:40:49.155Z,15.30
2018-01-26T03:43:17.449Z,17.90
2018-01-26T03:45:46.545Z,18.20
2018-01-26T03:48:15.601Z,18.50
2018-01-26T03:50:43.917Z,19.97
2018-01-26T03:53:14.064Z,19.93
2018-01-26T03:55:42.406Z,14.23
2018-01-26T03:58:11.474Z,15.70
2018-01-26T04:00:39.871Z,16.30
2018-01-26T04:03:08.193Z,18.00
2018-01-26T04:05:36.492Z,21.90
2018-01-26T04:08:04.823Z,23.43
2018-01-26T04:10:33.124Z,26.30
2018-01-26T04:13:01.448Z,23.50
2018-01-26T04:15:29.766Z,25.97
2018-01-26T04:17:58.829Z,22.33
2018-01-26T04:20:27.889Z,27.10
2018-01-26T04:22:56.207Z,18.67
2018-01-26T04:25:25.252Z,19.27
2018-01-26T04:27:53.588Z,15.33
2018-01-26T04:30:21.889Z,15.80
2018-01-26T04:32:50.196Z,16.20
2018-01-26T04:35:18.486Z,19.73
2018-01-26T04:37:46.804Z,17.33
2018-01-26T04:40:15.105Z,17.70
2018-01-26T04:42:43.436Z,11.47
2018-01-26T04:45:13.346Z,14.00
2018-01-26T04:47:41.677Z,17.27
2018-01-26T04:50:09.976Z,15.80
2018-01-26T04:52:38.368Z,15.67
2018-01-26T04:55:07.437Z,13.73
2018-01-26T04:57:35.736Z,15.77
2018-01-26T05:00:04.833Z,14.87
2018-01-26T05:02:33.128Z,15.40
2018-01-26T05:05:02.213Z,15.33
2018-01-26T05:07:31.277Z,14.30
2018-01-26T05:09:59.597Z,12.63
2018-01-26T05:12:28.664Z,14.67
2018-01-26T05:14:56.972Z,13.43
2018-01-26T05:17:25.285Z,14.50
2018-01-26T05:19:53.592Z,13.83
2018-01-26T05:22:21.897Z,13.43
2018-01-26T05:24:50.212Z,13.50
2018-01-26T05:27:18.536Z,17.77
2018-01-26T05:29:46.857Z,22.10
2018-01-26T05:32:15.197Z,16.20
2018-01-26T05:34:44.293Z,17.07
2018-01-26T05:37:13.381Z,16.73
2018-01-26T05:39:42.449Z,15.00
2018-01-26T05:42:10.774Z,15.93
2018-01-26T05:44:39.085Z,14.60
2018-01-26T05:47:07.405Z,14.13
2018-01-26T05:49:36.469Z,14.40
2018-01-26T05:52:04.785Z,13.33
2018-01-26T05:54:33.101Z,10.90
2018-01-26T05:57:01.424Z,11.50
2018-01-26T05:59:30.833Z,14.50
2018-01-26T06:04:58.417Z,12.03
2018-01-26T06:07:26.725Z,11.40
2018-01-26T06:09:55.056Z,11.90
2018-01-26T06:12:24.129Z,10.10
2018-01-26T06:14:52.462Z,10.20
2018-01-26T06:17:20.774Z,14.83
2018-01-26T06:19:49.088Z,16.90
2018-01-26T06:22:18.144Z,15.80
2018-01-26T06:24:46.460Z,19.27
2018-01-26T06:27:14.775Z,20.40
2018-01-26T06:29:43.146Z,18.30
2018-01-26T06:32:11.424Z,22.20
2018-01-26T06:34:39.742Z,19.00
2018-01-26T06:37:08.145Z,19.40
2018-01-26T06:45:31.972Z,19.30
2018-01-26T06:48:00.676Z,19.03
2018-01-26T06:50:29.984Z,18.33
2018-01-26T06:52:59.466Z,20.93
2018-01-26T06:55:28.227Z,17.70
2018-01-26T06:57:58.424Z,20.63
2018-01-26T07:00:28.677Z,14.27
2018-01-26T07:02:57.207Z,20.40
2018-01-26T07:05:25.671Z,18.20
2018-01-26T07:07:54.147Z,17.40
2018-01-26T07:10:23.812Z,16.37
2018-01-26T07:12:52.744Z,15.13
2018-01-26T07:15:21.264Z,18.50
2018-01-26T07:17:49.574Z,18.10
2018-01-26T07:20:17.880Z,16.40
2018-01-26T07:22:46.210Z,22.17
2018-01-26T07:25:14.548Z,22.17
2018-01-26T07:27:42.881Z,17.83
2018-01-26T07:30:11.204Z,17.87
2018-01-26T07:32:40.277Z,20.60
2018-01-26T07:35:08.613Z,23.03
2018-01-26T07:37:36.917Z,22.47
2018-01-26T07:40:05.240Z,23.70
2018-01-26T07:42:34.293Z,22.00
2018-01-26T07:45:02.687Z,25.87
2018-01-26T07:47:31.018Z,19.77
2018-01-26T07:49:59.313Z,20.57
2018-01-26T07:52:27.645Z,20.07
2018-01-26T07:54:56.013Z,21.67
2018-01-26T07:57:24.330Z,21.30
2018-01-26T07:59:52.649Z,19.70
2018-01-26T08:02:21.030Z,18.33
2018-01-26T08:04:50.096Z,20.97
2018-01-26T08:07:18.396Z,19.43
2018-01-26T08:09:47.285Z,21.30
2018-01-26T08:12:15.576Z,21.40
2018-01-26T08:14:44.668Z,22.80
2018-01-26T08:17:12.996Z,20.33
2018-01-26T08:19:41.332Z,24.20
2018-01-26T08:22:10.381Z,26.23
2018-01-26T08:24:38.700Z,20.47
2018-01-26T08:27:07.768Z,23.10
2018-01-26T08:29:36.093Z,18.27
2018-01-26T08:32:04.612Z,20.13
2018-01-26T08:34:33.025Z,19.07
2018-01-26T08:37:02.095Z,19.47
2018-01-26T08:42:39.421Z,21.23
2018-01-26T08:45:08.498Z,19.07
2018-01-26T08:47:36.798Z,17.20
2018-01-26T08:50:05.882Z,19.00
2018-01-26T08:52:34.250Z,19.50
2018-01-26T08:58:01.633Z,20.17
2018-01-26T09:00:29.918Z,19.70
2018-01-26T09:02:58.266Z,20.40
2018-01-26T09:05:26.557Z,20.03
2018-01-26T09:07:55.657Z,28.80
2018-01-26T09:10:24.738Z,23.47
2018-01-26T09:12:53.883Z,20.63
2018-01-26T09:15:22.177Z,17.53
2018-01-26T09:17:50.493Z,19.90
2018-01-26T09:20:19.102Z,20.60
2018-01-26T09:22:48.153Z,25.30
2018-01-26T09:25:16.490Z,25.40
2018-01-26T09:27:44.779Z,28.40
2018-01-26T09:30:13.118Z,28.53
2018-01-26T09:32:42.198Z,27.60
2018-01-26T09:35:10.504Z,31.70
2018-01-26T09:37:38.797Z,32.73
2018-01-26T09:40:07.141Z,29.13
2018-01-26T09:42:36.237Z,26.70
2018-01-26T09:45:05.366Z,25.20
2018-01-26T09:47:33.645Z,27.73
2018-01-26T09:50:01.989Z,26.03
2018-01-26T09:52:31.037Z,25.73
2018-01-26T09:54:59.373Z,24.90
2018-01-26T09:57:27.714Z,30.17
2018-01-26T09:59:56.313Z,26.77
2018-01-26T10:02:25.407Z,25.40
2018-01-26T10:04:54.478Z,22.87
2018-01-26T10:07:22.841Z,24.93
2018-01-26T10:09:51.165Z,25.43
2018-01-26T10:12:19.537Z,22.17
2018-01-26T10:14:47.818Z,19.93
2018-01-26T10:17:16.909Z,23.37
2018-01-26T10:19:45.192Z,22.30
2018-01-26T10:22:14.274Z,20.10
2018-01-26T10:24:42.592Z,23.07
2018-01-26T10:30:09.317Z,18.70
2018-01-26T10:32:38.365Z,22.40
2018-01-26T10:35:06.669Z,25.17
2018-01-26T10:37:34.981Z,25.70
2018-01-26T10:40:03.291Z,24.20
2018-01-26T10:42:31.585Z,22.90
2018-01-26T10:44:59.915Z,23.43
2018-01-26T10:47:28.275Z,20.97
2018-01-26T10:49:56.610Z,24.20
2018-01-26T10:52:24.904Z,21.23
2018-01-26T10:54:53.223Z,21.60
2018-01-26T10:57:21.526Z,22.40
2018-01-26T10:59:49.857Z,22.60
2018-01-26T11:02:18.916Z,24.63
2018-01-26T11:04:47.228Z,22.70
2018-01-26T11:07:15.590Z,21.33
2018-01-26T11:09:44.692Z,22.40
2018-01-26T11:12:12.979Z,21.87
2018-01-26T11:14:42.071Z,24.73
2018-01-26T11:17:11.133Z,25.87
2018-01-26T11:19:39.421Z,28.00
2018-01-26T11:22:08.020Z,25.83
2018-01-26T11:24:37.082Z,23.27
2018-01-26T11:27:05.454Z,26.83
2018-01-26T11:29:33.760Z,28.20
2018-01-26T11:32:02.837Z,27.60
2018-01-26T11:34:31.138Z,28.07
2018-01-26T11:36:59.468Z,24.90
2018-01-26T11:39:27.801Z,28.20
2018-01-26T11:41:56.913Z,26.47
2018-01-26T11:44:25.216Z,40.13
2018-01-26T11:46:53.510Z,38.23
2018-01-26T11:49:21.838Z,26.00
2018-01-26T11:51:50.137Z,28.33
2018-01-26T11:54:18.436Z,23.90
2018-01-26T11:56:46.766Z,27.70
2018-01-26T11:59:15.094Z,25.60
2018-01-26T12:01:43.403Z,24.60
2018-01-26T12:04:11.720Z,26.73
2018-01-26T12:06:40.185Z,25.17
2018-01-26T12:09:08.489Z,24.63
2018-01-26T12:11:36.813Z,27.40
2018-01-26T12:14:05.173Z,23.13
2018-01-26T12:16:34.257Z,25.20
2018-01-26T12:19:02.712Z,24.37
2018-01-26T12:21:31.033Z,25.50
2018-01-26T12:24:00.105Z,24.73
2018-01-26T12:26:28.606Z,24.57
2018-01-26T12:28:57.676Z,23.30
2018-01-26T12:31:25.980Z,22.43
2018-01-26T12:33:54.301Z,20.83
2018-01-26T12:36:22.636Z,23.00
2018-01-26T12:38:50.945Z,24.43
2018-01-26T12:41:19.221Z,25.77
2018-01-26T12:43:48.030Z,29.87
2018-01-26T12:46:17.045Z,25.70
2018-01-26T12:48:45.345Z,25.03
2018-01-26T12:51:14.453Z,22.73
2018-01-26T12:53:42.761Z,22.37
2018-01-26T12:56:11.356Z,24.30
2018-01-26T12:58:39.660Z,28.63
2018-01-26T13:01:07.965Z,24.77
2018-01-26T13:03:36.290Z,27.10
2018-01-26T13:06:04.904Z,25.07
2018-01-26T13:08:34.203Z,25.47
2018-01-26T13:11:02.549Z,28.90
2018-01-26T13:13:30.900Z,24.37
2018-01-26T13:15:59.228Z,25.87
2018-01-26T13:18:28.365Z,25.10
2018-01-26T13:20:56.668Z,25.60
2018-01-26T13:23:24.992Z,26.47
2018-01-26T13:25:54.065Z,24.57
2018-01-26T13:28:22.368Z,24.80
2018-01-26T13:30:50.727Z,22.17
2018-01-26T13:33:19.065Z,24.67
2018-01-26T13:35:47.373Z,24.40
2018-01-26T13:38:15.969Z,26.00
2018-01-26T13:40:45.036Z,24.57
2018-01-26T13:43:13.351Z,26.63
2018-01-26T13:45:41.676Z,27.10
2018-01-26T13:48:11.012Z,21.57
2018-01-26T13:50:40.127Z,23.43
2018-01-26T13:53:09.221Z,25.50
2018-01-26T13:55:38.272Z,25.87
2018-01-26T13:58:06.599Z,27.50
2018-01-26T14:00:34.914Z,25.33
2018-01-26T14:03:03.246Z,26.27
2018-01-26T14:05:31.575Z,24.17
2018-01-26T14:07:59.887Z,22.17
2018-01-26T14:10:28.217Z,27.60
2018-01-26T14:12:56.565Z,25.47
2018-01-26T14:15:24.885Z,27.90
2018-01-26T14:17:53.200Z,27.73
2018-01-26T14:20:21.514Z,28.00
2018-01-26T14:22:49.809Z,27.93
2018-01-26T14:25:18.123Z,29.67
2018-01-26T14:27:47.206Z,30.67
2018-01-26T14:30:16.282Z,27.40
2018-01-26T14:32:44.625Z,24.90
2018-01-26T14:35:12.956Z,28.33
2018-01-26T14:37:42.041Z,29.37
2018-01-26T14:40:11.133Z,28.40
2018-01-26T14:42:39.500Z,30.17
2018-01-26T14:45:07.789Z,31.37
2018-01-26T14:47:36.094Z,34.70
2018-01-26T14:50:05.156Z,33.80
2018-01-26T14:52:33.482Z,30.03
2018-01-26T14:55:01.781Z,35.00
2018-01-26T14:57:30.089Z,35.60
2018-01-26T14:59:59.180Z,33.67
2018-01-26T15:02:28.146Z,39.47
2018-01-26T15:04:56.778Z,39.90
2018-01-26T15:07:26.081Z,35.90
2018-01-26T15:09:55.149Z,39.17
2018-01-26T15:12:24.458Z,33.97
2018-01-26T15:14:53.028Z,36.37
2018-01-26T15:17:21.788Z,33.07
2018-01-26T15:19:50.340Z,29.93
2018-01-26T15:22:18.723Z,32.20
2018-01-26T15:24:48.019Z,30.83
2018-01-26T15:27:17.255Z,32.00
2018-01-26T15:29:45.702Z,31.37
2018-01-26T15:32:16.783Z,31.13
2018-01-26T15:34:46.579Z,30.20
2018-01-26T15:37:17.488Z,32.03
2018-01-26T15:39:47.958Z,27.77
2018-01-26T15:42:18.712Z,31.10
2018-01-26T15:44:49.735Z,31.63
2018-01-26T15:47:21.844Z,36.53
2018-01-26T15:49:54.341Z,29.47
2018-01-26T15:52:25.202Z,33.50
2018-01-26T15:54:55.277Z,29.77
2018-01-26T15:57:26.027Z,29.67
2018-01-26T15:59:54.856Z,32.00
2018-01-26T16:02:23.169Z,31.67
2018-01-26T16:04:51.482Z,33.70
2018-01-26T16:07:19.808Z,35.50
2018-01-26T16:09:48.877Z,33.13
2018-01-26T16:12:17.209Z,32.90
2018-01-26T16:14:45.503Z,31.27
2018-01-26T16:17:13.838Z,30.67
2018-01-26T16:19:42.913Z,30.50
2018-01-26T16:22:11.229Z,33.93
2018-01-26T16:24:39.529Z,29.83
2018-01-26T16:27:07.869Z,32.30
2018-01-26T16:29:36.925Z,34.73
2018-01-26T16:32:05.233Z,30.37
2018-01-26T16:34:34.328Z,34.10
2018-01-26T16:37:02.614Z,33.70
2018-01-26T16:39:30.958Z,32.40
2018-01-26T16:41:59.265Z,31.20
2018-01-26T16:44:27.627Z,34.93
2018-01-26T16:46:55.924Z,34.13
2018-01-26T16:49:24.268Z,33.87
2018-01-26T16:51:52.556Z,35.50
2018-01-26T16:54:21.651Z,32.13
2018-01-26T16:56:50.749Z,29.70
2018-01-26T17:02:17.604Z,30.10
2018-01-26T17:04:46.694Z,28.87
2018-01-26T17:07:14.989Z,30.00
2018-01-26T17:12:42.193Z,34.73
2018-01-26T17:15:10.512Z,30.87
2018-01-26T17:17:39.630Z,31.33
2018-01-26T17:20:08.707Z,34.87
2018-01-26T17:22:37.038Z,33.00
2018-01-26T17:25:05.362Z,32.03
2018-01-26T17:27:34.460Z,30.97
2018-01-26T17:30:02.755Z,31.50
2018-01-26T17:32:31.839Z,35.17
2018-01-26T17:35:00.910Z,33.20
2018-01-26T17:37:29.224Z,29.60
2018-01-26T17:39:57.573Z,29.43
2018-01-26T17:42:26.661Z,33.63
2018-01-26T17:44:54.980Z,34.60
2018-01-26T17:47:23.284Z,31.03
2018-01-26T17:49:51.628Z,30.60
2018-01-26T17:52:19.933Z,31.00
2018-01-26T17:54:48.259Z,29.93
2018-01-26T17:57:17.342Z,32.77
2018-01-26T17:59:45.684Z,33.50
2018-01-26T18:02:13.958Z,31.20
2018-01-26T18:04:42.268Z,30.70
2018-01-26T18:07:10.582Z,31.80
2018-01-26T18:09:38.886Z,30.23
2018-01-26T18:12:07.225Z,32.37
2018-01-26T18:14:36.284Z,32.13
2018-01-26T18:17:04.595Z,34.10
2018-01-26T18:19:32.948Z,33.90
2018-01-26T18:22:01.244Z,31.93
2018-01-26T18:24:30.301Z,33.30
2018-01-26T18:26:58.609Z,36.30
2018-01-26T18:29:26.934Z,33.53
2018-01-26T18:31:55.216Z,39.17
2018-01-26T18:34:23.516Z,35.70
2018-01-26T18:36:51.792Z,38.40
2018-01-26T18:39:20.112Z,34.10
2018-01-26T18:41:48.409Z,34.10
2018-01-26T18:44:16.785Z,35.47
2018-01-26T18:46:45.094Z,39.40
2018-01-26T18:49:13.400Z,35.97
2018-01-26T18:51:42.480Z,35.10
2018-01-26T18:54:10.812Z,38.07
2018-01-26T18:56:39.123Z,40.23
2018-01-26T18:59:07.519Z,33.80
2018-01-26T19:01:35.835Z,38.93
2018-01-26T19:04:04.167Z,36.07
2018-01-26T19:06:32.489Z,35.10
2018-01-26T19:09:00.799Z,40.67
2018-01-26T19:11:29.118Z,38.03
2018-01-26T19:13:58.182Z,43.70
2018-01-26T19:16:26.500Z,40.67
2018-01-26T19:18:54.807Z,40.97
2018-01-26T19:21:23.168Z,41.80
2018-01-26T19:23:52.189Z,38.77
2018-01-26T19:26:20.580Z,43.00
2018-01-26T19:28:49.971Z,49.57
2018-01-26T19:31:18.265Z,41.87
2018-01-26T19:33:47.366Z,44.57
2018-01-26T19:36:15.668Z,44.87
2018-01-26T19:38:44.025Z,45.10
2018-01-26T19:41:12.495Z,40.23
2018-01-26T19:43:40.921Z,41.63
2018-01-26T19:46:09.273Z,44.43
2018-01-26T19:48:37.585Z,40.33
2018-01-26T19:51:05.889Z,43.30
2018-01-26T19:53:34.208Z,42.10
2018-01-26T19:56:02.529Z,38.63
2018-01-26T19:58:31.083Z,39.90
2018-01-26T20:00:59.379Z,42.07
2018-01-26T20:03:32.219Z,41.40
2018-01-26T20:19:25.800Z,42.30
2018-01-26T20:21:54.125Z,43.30
2018-01-26T20:24:22.430Z,48.00
2018-01-26T20:26:50.780Z,44.37
2018-01-26T20:29:19.077Z,41.90
2018-01-26T20:31:48.174Z,46.10
2018-01-26T20:34:17.232Z,44.70
2018-01-26T20:36:45.538Z,42.77
2018-01-26T20:39:13.832Z,43.43
2018-01-26T20:41:42.904Z,48.63
2018-01-26T20:44:12.004Z,44.90
2018-01-26T20:46:41.101Z,42.27
2018-01-26T20:49:09.426Z,47.10
2018-01-26T20:51:37.724Z,52.40
2018-01-26T20:54:06.045Z,43.77
2018-01-26T20:56:34.365Z,43.20
2018-01-26T20:59:02.684Z,45.27
2018-01-26T21:01:31.152Z,42.90
2018-01-26T21:03:59.468Z,44.77
2018-01-26T21:06:28.526Z,40.33
2018-01-26T21:08:57.613Z,39.70
2018-01-26T21:11:25.910Z,43.27
2018-01-26T21:13:54.270Z,41.87
2018-01-26T21:16:23.337Z,42.93
2018-01-26T21:18:51.641Z,42.23
2018-01-26T21:21:19.975Z,44.87
2018-01-26T21:23:48.277Z,41.70
2018-01-26T21:26:16.601Z,43.23
2018-01-26T21:28:44.904Z,44.40
2018-01-26T21:31:13.221Z,41.47
2018-01-26T21:33:41.509Z,123.60
2018-01-26T21:36:10.616Z,58.90
2018-01-26T21:38:39.709Z,70.40
2018-01-26T21:41:08.797Z,78.33
2018-01-26T21:43:37.880Z,83.23
2018-01-26T21:46:06.211Z,46.00
2018-01-26T21:48:34.857Z,41.97
2018-01-26T21:51:03.914Z,41.77
2018-01-26T21:53:32.224Z,39.33
2018-01-26T21:56:01.297Z,39.40
2018-01-26T21:58:29.611Z,41.53
2018-01-26T22:00:57.904Z,41.70
2018-01-26T22:03:26.225Z,37.50
2018-01-26T22:05:54.531Z,42.97
2018-01-26T22:08:22.897Z,40.67
2018-01-26T22:10:51.184Z,40.53
2018-01-26T22:13:20.257Z,39.93
2018-01-26T22:15:48.552Z,42.47
2018-01-26T22:18:17.657Z,42.20
2018-01-26T22:20:46.701Z,40.97
2018-01-26T22:23:15.050Z,38.10
2018-01-26T22:25:43.370Z,37.93
2018-01-26T22:28:11.660Z,48.80
2018-01-26T22:30:40.779Z,43.40
2018-01-26T22:33:09.141Z,41.30
2018-01-26T22:35:37.528Z,43.53
2018-01-26T22:38:05.828Z,44.00
2018-01-26T22:40:34.148Z,47.93
2018-01-26T22:43:03.244Z,50.97
2018-01-26T22:45:31.597Z,42.10
2018-01-26T22:47:59.902Z,41.90
2018-01-26T22:50:28.238Z,41.40
2018-01-26T22:52:56.561Z,44.63
2018-01-26T22:55:24.897Z,44.60
2018-01-26T22:57:53.193Z,44.37
2018-01-26T23:00:21.493Z,42.23
2018-01-26T23:02:50.581Z,41.20
2018-01-26T23:05:18.892Z,38.13
2018-01-26T23:07:47.212Z,39.00
2018-01-26T23:10:15.596Z,40.23
2018-01-26T23:12:43.922Z,37.47
2018-01-26T23:15:12.236Z,38.80
2018-01-26T23:17:40.565Z,37.90
2018-01-26T23:20:08.874Z,38.70
2018-01-26T23:22:37.201Z,41.47
2018-01-26T23:25:05.495Z,38.30
2018-01-26T23:27:34.582Z,36.30
2018-01-26T23:30:02.868Z,40.63
2018-01-26T23:32:31.923Z,38.70
2018-01-26T23:35:00.237Z,38.07
2018-01-26T23:37:28.813Z,34.50
2018-01-26T23:39:57.205Z,36.20
2018-01-26T23:42:25.505Z,34.70
2018-01-26T23:44:53.827Z,38.47
2018-01-26T23:47:22.913Z,39.00
2018-01-26T23:49:51.237Z,34.43
2018-01-26T23:52:19.532Z,38.70
2018-01-26T23:54:49.409Z,36.50
2018-01-26T23:57:17.790Z,36.93
2018-01-26T23:59:46.152Z,38.23
